createdAt,value
2022-12-26T00:02:44.809Z,31.70
2022-12-26T00:07:52.262Z,27.10
2022-12-26T00:13:38.570Z,30.30
2022-12-26T00:18:26.725Z,28.90
2022-12-26T00:23:34.445Z,31.10
2022-12-26T00:28:42.080Z,32.20
2022-12-26T00:33:50.311Z,29.10
2022-12-26T00:38:58.342Z,30.30
2022-12-26T00:49:11.133Z,30.60
2022-12-26T00:54:19.901Z,31.50
2022-12-26T00:59:27.315Z,30.10
2022-12-26T01:04:34.912Z,34.20
2022-12-26T01:09:42.082Z,33.40
2022-12-26T01:14:49.383Z,30.50
2022-12-26T01:19:56.835Z,31.40
2022-12-26T01:25:04.202Z,30.80
2022-12-26T01:30:13.173Z,30.00
2022-12-26T01:35:20.459Z,29.60
2022-12-26T01:40:27.862Z,29.50
2022-12-26T01:45:35.257Z,30.10
2022-12-26T01:50:46.404Z,28.70
2022-12-26T01:55:59.252Z,27.20
2022-12-26T02:01:09.313Z,26.30
2022-12-26T02:06:17.594Z,27.00
2022-12-26T02:11:30.232Z,27.80
2022-12-26T02:16:38.801Z,26.20
2022-12-26T02:22:08.852Z,24.50
2022-12-26T02:27:36.931Z,25.20
2022-12-26T02:33:00.000Z,25.00
2022-12-26T02:38:22.189Z,24.30
2022-12-26T02:43:36.768Z,23.20
2022-12-26T02:48:56.733Z,21.80
2022-12-26T02:54:48.878Z,23.20
2022-12-26T03:00:19.430Z,20.90
2022-12-26T03:05:52.537Z,21.30
2022-12-26T03:11:18.675Z,21.40
2022-12-26T03:16:45.985Z,19.80
2022-12-26T03:21:54.178Z,21.20
2022-12-26T03:27:01.701Z,20.30
2022-12-26T03:32:11.646Z,20.70
2022-12-26T03:37:48.793Z,19.70
2022-12-26T03:43:23.823Z,20.00
2022-12-26T03:48:54.061Z,21.40
2022-12-26T03:54:26.095Z,23.80
2022-12-26T03:59:57.359Z,27.60
2022-12-26T04:05:26.223Z,26.80
2022-12-26T04:10:53.847Z,28.30
2022-12-26T04:16:23.125Z,31.10
2022-12-26T04:21:56.071Z,29.60
2022-12-26T04:27:27.395Z,29.70
2022-12-26T04:32:56.519Z,30.50
2022-12-26T04:38:23.310Z,34.20
2022-12-26T04:43:51.847Z,32.50
2022-12-26T04:49:17.253Z,30.90
2022-12-26T04:54:24.591Z,28.20
2022-12-26T04:59:32.346Z,29.50
2022-12-26T05:04:57.395Z,28.50
2022-12-26T05:10:05.345Z,29.60
2022-12-26T05:20:32.589Z,26.70
2022-12-26T05:26:00.481Z,25.10
2022-12-26T05:31:08.726Z,25.80
2022-12-26T05:36:17.603Z,30.90
2022-12-26T05:41:25.412Z,29.30
2022-12-26T05:46:32.730Z,30.40
2022-12-26T05:51:40.072Z,29.50
2022-12-26T05:56:49.413Z,29.90
2022-12-26T06:01:57.128Z,29.90
2022-12-26T06:07:04.761Z,30.50
2022-12-26T06:12:12.021Z,28.70
2022-12-26T06:17:19.279Z,31.40
2022-12-26T06:22:26.732Z,28.10
2022-12-26T06:27:34.110Z,30.10
2022-12-26T06:32:42.277Z,28.70
2022-12-26T06:37:49.581Z,26.60
2022-12-26T06:42:56.845Z,22.50
2022-12-26T06:48:04.540Z,21.90
2022-12-26T06:53:11.971Z,19.00
2022-12-26T06:58:19.882Z,17.60
2022-12-26T07:03:29.906Z,17.30
2022-12-26T07:08:37.282Z,15.10
2022-12-26T07:13:46.111Z,13.60
2022-12-26T07:18:55.336Z,13.70
2022-12-26T07:24:03.847Z,12.80
2022-12-26T07:29:13.254Z,14.30
2022-12-26T07:34:20.540Z,13.10
2022-12-26T07:39:28.812Z,14.00
2022-12-26T07:44:36.235Z,12.20
2022-12-26T07:49:43.472Z,12.30
2022-12-26T07:54:50.834Z,12.10
2022-12-26T07:59:58.213Z,12.20
2022-12-26T08:05:05.791Z,12.30
2022-12-26T08:10:13.777Z,12.10
2022-12-26T08:15:21.371Z,10.30
2022-12-26T08:20:28.703Z,10.50
2022-12-26T08:25:35.961Z,9.40
2022-12-26T08:30:44.070Z,10.60
2022-12-26T08:41:00.121Z,9.90
2022-12-26T08:46:09.911Z,9.30
2022-12-26T08:51:19.037Z,8.20
2022-12-26T08:56:28.836Z,7.40
2022-12-26T09:01:36.474Z,8.90
2022-12-26T09:06:44.207Z,7.90
2022-12-26T09:11:51.492Z,8.60
2022-12-26T09:16:58.706Z,7.40
2022-12-26T09:22:23.366Z,7.60
2022-12-26T09:27:31.480Z,7.80
2022-12-26T09:32:39.780Z,8.40
2022-12-26T09:37:47.011Z,9.00
2022-12-26T09:43:13.883Z,8.60
2022-12-26T09:48:28.405Z,8.00
2022-12-26T09:53:42.054Z,7.10
2022-12-26T09:58:53.660Z,7.90
2022-12-26T10:04:02.639Z,7.80
2022-12-26T10:09:31.843Z,7.50
2022-12-26T10:14:49.794Z,7.30
2022-12-26T10:20:21.986Z,7.30
2022-12-26T10:25:38.852Z,7.30
2022-12-26T10:30:47.636Z,7.20
2022-12-26T10:35:55.299Z,6.30
2022-12-26T10:41:15.816Z,5.70
2022-12-26T10:46:40.191Z,5.80
2022-12-26T10:51:47.665Z,6.30
2022-12-26T10:56:58.189Z,5.20
2022-12-26T11:02:16.619Z,4.80
2022-12-26T11:07:25.966Z,4.40
2022-12-26T11:12:41.490Z,5.80
2022-12-26T11:17:52.572Z,5.10
2022-12-26T11:23:22.055Z,5.20
2022-12-26T11:28:39.171Z,5.30
2022-12-26T11:33:48.899Z,4.70
2022-12-26T11:38:59.817Z,4.40
2022-12-26T11:44:26.471Z,5.10
2022-12-26T11:49:37.914Z,5.40
2022-12-26T11:54:52.796Z,4.30
2022-12-26T12:00:22.152Z,4.80
2022-12-26T12:05:43.733Z,5.00
2022-12-26T12:11:06.727Z,3.60
2022-12-26T12:16:26.334Z,3.50
2022-12-26T12:21:43.623Z,2.70
2022-12-26T12:27:07.606Z,3.50
2022-12-26T12:32:19.448Z,3.30
2022-12-26T12:37:38.469Z,3.10
2022-12-26T12:42:56.230Z,3.60
2022-12-26T12:48:26.317Z,3.50
2022-12-26T12:53:47.629Z,3.60
2022-12-26T12:59:03.954Z,3.80
2022-12-26T13:04:17.396Z,4.70
2022-12-26T13:09:29.801Z,4.80
2022-12-26T13:14:41.859Z,5.00
2022-12-26T13:20:01.722Z,4.30
2022-12-26T13:25:12.879Z,3.80
2022-12-26T13:30:20.510Z,3.20
2022-12-26T13:35:59.630Z,2.90
2022-12-26T13:41:21.137Z,3.00
2022-12-26T13:46:55.789Z,2.80
2022-12-26T13:52:33.917Z,3.20
2022-12-26T13:57:45.196Z,4.10
2022-12-26T14:03:21.857Z,4.20
2022-12-26T14:08:38.712Z,3.30
2022-12-26T14:14:06.223Z,3.80
2022-12-26T14:19:27.306Z,3.70
2022-12-26T14:24:45.158Z,3.80
2022-12-26T14:30:07.088Z,4.30
2022-12-26T14:35:24.964Z,4.90
2022-12-26T14:40:35.536Z,4.90
2022-12-26T14:45:49.067Z,4.90
2022-12-26T14:51:18.890Z,4.70
2022-12-26T14:56:38.376Z,4.50
2022-12-26T15:02:08.610Z,4.90
2022-12-26T15:07:52.722Z,4.30
2022-12-26T15:13:35.651Z,4.80
2022-12-26T15:19:29.387Z,5.50
2022-12-26T15:30:43.366Z,5.30
2022-12-26T15:36:01.107Z,4.60
2022-12-26T15:41:17.956Z,5.20
2022-12-26T15:46:31.883Z,5.90
2022-12-26T15:51:55.570Z,5.60
2022-12-26T15:57:20.060Z,5.80
2022-12-26T16:02:49.109Z,4.80
2022-12-26T16:08:05.355Z,5.30
2022-12-26T16:13:23.203Z,6.40
2022-12-26T16:18:32.865Z,5.20
2022-12-26T16:23:42.569Z,5.40
2022-12-26T16:28:49.987Z,5.80
2022-12-26T16:33:59.826Z,4.70
2022-12-26T16:39:11.977Z,4.10
2022-12-26T16:44:32.083Z,4.20
2022-12-26T16:49:41.733Z,3.50
2022-12-26T16:54:48.914Z,4.00
2022-12-26T17:00:01.391Z,3.40
2022-12-26T17:05:18.763Z,2.60
2022-12-26T17:10:29.182Z,3.80
2022-12-26T17:15:47.114Z,3.30
2022-12-26T17:20:54.291Z,3.70
2022-12-26T17:26:19.682Z,3.60
2022-12-26T17:31:36.270Z,3.00
2022-12-26T17:37:17.765Z,3.40
2022-12-26T17:42:14.085Z,4.10
2022-12-26T17:47:28.448Z,4.40
2022-12-26T17:52:36.422Z,4.60
2022-12-26T18:02:49.227Z,4.20
2022-12-26T18:07:56.891Z,3.80
2022-12-26T18:13:05.016Z,3.20
2022-12-26T18:23:25.377Z,4.20
2022-12-26T18:28:33.833Z,4.30
2022-12-26T18:33:41.505Z,3.80
2022-12-26T18:38:49.228Z,4.10
2022-12-26T18:43:57.725Z,3.80
2022-12-26T18:49:05.063Z,3.90
2022-12-26T18:59:19.028Z,4.70
2022-12-26T19:04:26.612Z,5.30
2022-12-26T19:09:33.893Z,5.40
2022-12-26T19:14:41.695Z,5.00
2022-12-26T19:19:50.303Z,5.20
2022-12-26T19:24:57.396Z,5.60
2022-12-26T19:30:04.849Z,5.70
2022-12-26T19:35:13.649Z,5.40
2022-12-26T19:40:24.904Z,5.40
2022-12-26T19:45:32.799Z,6.20
2022-12-26T19:50:40.105Z,6.60
2022-12-26T19:55:49.359Z,6.40
2022-12-26T20:00:57.328Z,6.00
2022-12-26T20:11:26.055Z,5.30
2022-12-26T20:22:05.119Z,5.90
2022-12-26T20:27:15.034Z,11.40
2022-12-26T20:32:29.142Z,6.70
2022-12-26T20:37:38.938Z,6.90
2022-12-26T20:42:47.696Z,7.90
2022-12-26T20:47:55.743Z,6.30
2022-12-26T20:58:25.168Z,6.20
2022-12-26T21:03:38.015Z,5.20
2022-12-26T21:08:47.873Z,5.40
2022-12-26T21:13:58.838Z,3.80
2022-12-26T21:19:15.100Z,4.50
2022-12-26T21:24:25.574Z,4.30
2022-12-26T21:29:40.688Z,4.50
2022-12-26T21:34:48.800Z,4.50
2022-12-26T21:39:57.542Z,4.00
2022-12-26T21:45:05.828Z,3.30
2022-12-26T21:50:13.865Z,4.80
2022-12-26T22:00:38.969Z,6.20
2022-12-26T22:05:46.559Z,5.60
2022-12-26T22:11:12.840Z,5.30
2022-12-26T22:16:20.472Z,6.30
2022-12-26T22:21:27.983Z,4.00
2022-12-26T22:26:40.647Z,4.70
2022-12-26T22:31:48.459Z,4.10
2022-12-26T22:42:03.756Z,3.40
2022-12-26T22:47:11.221Z,3.80
2022-12-26T22:52:18.442Z,2.40
2022-12-26T22:57:26.329Z,1.50
2022-12-26T23:07:44.845Z,1.00
2022-12-26T23:12:53.162Z,1.30
2022-12-26T23:18:36.458Z,1.20
2022-12-26T23:23:45.627Z,2.10
2022-12-26T23:29:10.281Z,1.70
2022-12-26T23:34:18.168Z,1.90
2022-12-26T23:39:26.538Z,1.60
2022-12-26T23:44:34.103Z,2.10
2022-12-26T23:49:41.248Z,1.80
2022-12-26T23:54:50.756Z,1.80
2022-12-26T23:59:57.924Z,1.90
